sensor_id;sensor_type;location;lat;lon;timestamp;P1;durP1;ratioP1;P2;durP2;ratioP2
38455;SDS011;24237;50.106;20.014;2024-01-27T00:01:38;3.83;;;1.63;;
38455;SDS011;24237;50.106;20.014;2024-01-27T00:04:04;2.60;;;1.45;;
38455;SDS011;24237;50.106;20.014;2024-01-27T00:06:30;3.20;;;1.42;;
38455;SDS011;24237;50.106;20.014;2024-01-27T00:08:55;1.52;;;0.88;;
38455;SDS011;24237;50.106;20.014;2024-01-27T00:11:21;2.28;;;1.13;;
38455;SDS011;24237;50.106;20.014;2024-01-27T00:13:49;3.25;;;1.35;;
38455;SDS011;24237;50.106;20.014;2024-01-27T00:16:15;1.85;;;1.08;;
38455;SDS011;24237;50.106;20.014;2024-01-27T00:18:40;2.08;;;1.00;;
38455;SDS011;24237;50.106;20.014;2024-01-27T00:21:06;2.90;;;1.00;;
38455;SDS011;24237;50.106;20.014;2024-01-27T00:23:32;3.33;;;1.13;;
38455;SDS011;24237;50.106;20.014;2024-01-27T00:25:59;3.25;;;1.15;;
38455;SDS011;24237;50.106;20.014;2024-01-27T00:28:28;5.15;;;1.17;;
38455;SDS011;24237;50.106;20.014;2024-01-27T00:30:54;8.85;;;1.40;;
38455;SDS011;24237;50.106;20.014;2024-01-27T00:33:20;4.43;;;1.30;;
38455;SDS011;24237;50.106;20.014;2024-01-27T00:35:46;3.60;;;1.27;;
38455;SDS011;24237;50.106;20.014;2024-01-27T00:38:12;7.22;;;1.92;;
38455;SDS011;24237;50.106;20.014;2024-01-27T00:40:37;6.18;;;1.50;;
38455;SDS011;24237;50.106;20.014;2024-01-27T00:43:04;7.32;;;1.02;;
38455;SDS011;24237;50.106;20.014;2024-01-27T00:45:30;6.88;;;1.08;;
38455;SDS011;24237;50.106;20.014;2024-01-27T00:47:56;3.22;;;1.17;;
38455;SDS011;24237;50.106;20.014;2024-01-27T00:50:22;9.63;;;1.60;;
38455;SDS011;24237;50.106;20.014;2024-01-27T00:52:48;8.50;;;1.30;;
38455;SDS011;24237;50.106;20.014;2024-01-27T00:55:14;4.22;;;1.30;;
38455;SDS011;24237;50.106;20.014;2024-01-27T00:57:39;7.47;;;1.75;;
38455;SDS011;24237;50.106;20.014;2024-01-27T01:00:06;8.35;;;1.73;;
38455;SDS011;24237;50.106;20.014;2024-01-27T01:02:32;9.48;;;1.73;;
38455;SDS011;24237;50.106;20.014;2024-01-27T01:04:58;9.27;;;1.77;;
38455;SDS011;24237;50.106;20.014;2024-01-27T01:07:24;12.80;;;1.45;;
38455;SDS011;24237;50.106;20.014;2024-01-27T01:09:50;9.75;;;1.90;;
38455;SDS011;24237;50.106;20.014;2024-01-27T01:12:16;9.45;;;1.77;;
38455;SDS011;24237;50.106;20.014;2024-01-27T01:14:42;6.00;;;1.50;;
38455;SDS011;24237;50.106;20.014;2024-01-27T01:17:08;13.23;;;2.00;;
38455;SDS011;24237;50.106;20.014;2024-01-27T01:19:34;6.25;;;1.77;;
38455;SDS011;24237;50.106;20.014;2024-01-27T01:22:01;6.50;;;2.00;;
38455;SDS011;24237;50.106;20.014;2024-01-27T01:24:27;7.90;;;1.80;;
38455;SDS011;24237;50.106;20.014;2024-01-27T01:26:53;7.50;;;2.65;;
38455;SDS011;24237;50.106;20.014;2024-01-27T01:29:18;14.80;;;2.75;;
38455;SDS011;24237;50.106;20.014;2024-01-27T01:31:44;9.30;;;2.08;;
38455;SDS011;24237;50.106;20.014;2024-01-27T01:34:10;9.63;;;2.05;;
38455;SDS011;24237;50.106;20.014;2024-01-27T01:36:35;12.20;;;2.45;;
38455;SDS011;24237;50.106;20.014;2024-01-27T01:39:02;10.13;;;1.95;;
38455;SDS011;24237;50.106;20.014;2024-01-27T01:41:28;11.10;;;2.53;;
38455;SDS011;24237;50.106;20.014;2024-01-27T01:43:54;10.43;;;2.40;;
38455;SDS011;24237;50.106;20.014;2024-01-27T01:46:21;10.00;;;2.47;;
38455;SDS011;24237;50.106;20.014;2024-01-27T01:48:48;9.95;;;2.83;;
38455;SDS011;24237;50.106;20.014;2024-01-27T01:51:15;8.23;;;1.95;;
38455;SDS011;24237;50.106;20.014;2024-01-27T01:53:42;6.90;;;2.10;;
38455;SDS011;24237;50.106;20.014;2024-01-27T01:56:10;11.30;;;2.60;;
38455;SDS011;24237;50.106;20.014;2024-01-27T01:58:38;13.38;;;1.73;;
38455;SDS011;24237;50.106;20.014;2024-01-27T02:01:04;9.80;;;2.55;;
38455;SDS011;24237;50.106;20.014;2024-01-27T02:03:30;6.07;;;1.58;;
38455;SDS011;24237;50.106;20.014;2024-01-27T02:05:55;6.82;;;1.60;;
38455;SDS011;24237;50.106;20.014;2024-01-27T02:08:21;10.88;;;1.67;;
38455;SDS011;24237;50.106;20.014;2024-01-27T02:10:47;12.77;;;2.05;;
38455;SDS011;24237;50.106;20.014;2024-01-27T02:13:22;12.70;;;1.83;;
38455;SDS011;24237;50.106;20.014;2024-01-27T02:15:48;9.45;;;1.92;;
38455;SDS011;24237;50.106;20.014;2024-01-27T02:18:15;9.82;;;1.92;;
38455;SDS011;24237;50.106;20.014;2024-01-27T02:20:41;6.93;;;1.83;;
38455;SDS011;24237;50.106;20.014;2024-01-27T02:23:07;7.63;;;2.10;;
38455;SDS011;24237;50.106;20.014;2024-01-27T02:25:33;11.25;;;1.88;;
38455;SDS011;24237;50.106;20.014;2024-01-27T02:27:59;6.97;;;2.05;;
38455;SDS011;24237;50.106;20.014;2024-01-27T02:30:26;7.57;;;2.40;;
38455;SDS011;24237;50.106;20.014;2024-01-27T02:32:52;9.30;;;1.90;;
38455;SDS011;24237;50.106;20.014;2024-01-27T02:35:17;9.38;;;1.80;;
38455;SDS011;24237;50.106;20.014;2024-01-27T02:37:43;13.25;;;2.25;;
38455;SDS011;24237;50.106;20.014;2024-01-27T02:40:09;8.05;;;1.85;;
38455;SDS011;24237;50.106;20.014;2024-01-27T02:42:38;15.70;;;2.70;;
38455;SDS011;24237;50.106;20.014;2024-01-27T02:45:04;10.65;;;2.55;;
38455;SDS011;24237;50.106;20.014;2024-01-27T02:47:30;6.07;;;1.75;;
38455;SDS011;24237;50.106;20.014;2024-01-27T02:49:55;14.30;;;1.73;;
38455;SDS011;24237;50.106;20.014;2024-01-27T02:52:21;14.43;;;2.13;;
38455;SDS011;24237;50.106;20.014;2024-01-27T02:54:47;11.00;;;2.28;;
38455;SDS011;24237;50.106;20.014;2024-01-27T02:57:13;12.02;;;2.17;;
38455;SDS011;24237;50.106;20.014;2024-01-27T02:59:40;10.50;;;2.10;;
38455;SDS011;24237;50.106;20.014;2024-01-27T03:02:06;8.30;;;1.55;;
38455;SDS011;24237;50.106;20.014;2024-01-27T03:04:31;11.45;;;2.63;;
38455;SDS011;24237;50.106;20.014;2024-01-27T03:06:57;11.18;;;1.98;;
38455;SDS011;24237;50.106;20.014;2024-01-27T03:09:23;19.52;;;2.20;;
38455;SDS011;24237;50.106;20.014;2024-01-27T03:11:48;16.58;;;2.28;;
38455;SDS011;24237;50.106;20.014;2024-01-27T03:14:14;4.28;;;1.27;;
38455;SDS011;24237;50.106;20.014;2024-01-27T03:16:40;11.23;;;1.83;;
38455;SDS011;24237;50.106;20.014;2024-01-27T03:19:07;8.60;;;1.70;;
38455;SDS011;24237;50.106;20.014;2024-01-27T03:21:32;9.55;;;2.03;;
38455;SDS011;24237;50.106;20.014;2024-01-27T03:23:58;8.57;;;2.03;;
38455;SDS011;24237;50.106;20.014;2024-01-27T03:26:23;4.55;;;1.70;;
38455;SDS011;24237;50.106;20.014;2024-01-27T03:28:50;5.63;;;1.70;;
38455;SDS011;24237;50.106;20.014;2024-01-27T03:31:15;11.63;;;2.03;;
38455;SDS011;24237;50.106;20.014;2024-01-27T03:33:41;11.43;;;2.30;;
38455;SDS011;24237;50.106;20.014;2024-01-27T03:36:09;9.10;;;2.65;;
38455;SDS011;24237;50.106;20.014;2024-01-27T03:38:38;12.43;;;2.78;;
38455;SDS011;24237;50.106;20.014;2024-01-27T03:41:08;14.18;;;2.92;;
38455;SDS011;24237;50.106;20.014;2024-01-27T03:43:34;10.45;;;2.65;;
38455;SDS011;24237;50.106;20.014;2024-01-27T03:45:59;11.23;;;2.03;;
38455;SDS011;24237;50.106;20.014;2024-01-27T03:48:25;14.63;;;2.45;;
38455;SDS011;24237;50.106;20.014;2024-01-27T03:50:51;10.70;;;2.25;;
38455;SDS011;24237;50.106;20.014;2024-01-27T03:53:17;11.57;;;2.53;;
38455;SDS011;24237;50.106;20.014;2024-01-27T03:55:42;19.23;;;2.55;;
38455;SDS011;24237;50.106;20.014;2024-01-27T03:58:08;11.52;;;2.70;;
38455;SDS011;24237;50.106;20.014;2024-01-27T04:00:34;9.32;;;2.63;;
38455;SDS011;24237;50.106;20.014;2024-01-27T04:02:59;22.85;;;3.42;;
38455;SDS011;24237;50.106;20.014;2024-01-27T04:05:25;14.57;;;5.20;;
38455;SDS011;24237;50.106;20.014;2024-01-27T04:07:52;10.80;;;2.30;;
38455;SDS011;24237;50.106;20.014;2024-01-27T04:10:18;11.98;;;2.65;;
38455;SDS011;24237;50.106;20.014;2024-01-27T04:12:44;12.90;;;2.13;;
38455;SDS011;24237;50.106;20.014;2024-01-27T04:15:10;12.38;;;3.92;;
38455;SDS011;24237;50.106;20.014;2024-01-27T04:17:37;12.23;;;2.63;;
38455;SDS011;24237;50.106;20.014;2024-01-27T04:20:03;17.45;;;2.92;;
38455;SDS011;24237;50.106;20.014;2024-01-27T04:22:29;7.88;;;1.70;;
38455;SDS011;24237;50.106;20.014;2024-01-27T04:24:55;10.52;;;2.03;;
38455;SDS011;24237;50.106;20.014;2024-01-27T04:27:21;10.07;;;2.35;;
38455;SDS011;24237;50.106;20.014;2024-01-27T04:29:47;15.05;;;2.80;;
38455;SDS011;24237;50.106;20.014;2024-01-27T04:32:13;6.55;;;2.08;;
38455;SDS011;24237;50.106;20.014;2024-01-27T04:34:38;15.48;;;2.55;;
38455;SDS011;24237;50.106;20.014;2024-01-27T04:37:04;9.75;;;2.30;;
38455;SDS011;24237;50.106;20.014;2024-01-27T04:39:30;10.98;;;2.17;;
38455;SDS011;24237;50.106;20.014;2024-01-27T04:41:56;8.85;;;2.10;;
38455;SDS011;24237;50.106;20.014;2024-01-27T04:44:22;13.40;;;2.65;;
38455;SDS011;24237;50.106;20.014;2024-01-27T04:46:48;10.52;;;2.33;;
38455;SDS011;24237;50.106;20.014;2024-01-27T04:49:16;16.77;;;2.00;;
38455;SDS011;24237;50.106;20.014;2024-01-27T04:51:42;11.82;;;3.97;;
38455;SDS011;24237;50.106;20.014;2024-01-27T04:54:08;9.48;;;1.50;;
38455;SDS011;24237;50.106;20.014;2024-01-27T04:56:34;13.90;;;2.17;;
38455;SDS011;24237;50.106;20.014;2024-01-27T04:58:59;8.82;;;1.77;;
38455;SDS011;24237;50.106;20.014;2024-01-27T05:01:25;10.85;;;2.00;;
38455;SDS011;24237;50.106;20.014;2024-01-27T05:03:51;14.70;;;2.25;;
38455;SDS011;24237;50.106;20.014;2024-01-27T05:06:16;8.63;;;2.28;;
38455;SDS011;24237;50.106;20.014;2024-01-27T05:08:43;10.45;;;2.38;;
38455;SDS011;24237;50.106;20.014;2024-01-27T05:11:09;10.48;;;2.63;;
38455;SDS011;24237;50.106;20.014;2024-01-27T05:13:35;17.85;;;2.55;;
38455;SDS011;24237;50.106;20.014;2024-01-27T05:18:28;11.35;;;2.75;;
38455;SDS011;24237;50.106;20.014;2024-01-27T05:20:54;17.25;;;3.08;;
38455;SDS011;24237;50.106;20.014;2024-01-27T05:23:19;11.10;;;3.22;;
38455;SDS011;24237;50.106;20.014;2024-01-27T05:25:45;13.25;;;2.90;;
38455;SDS011;24237;50.106;20.014;2024-01-27T05:28:11;14.77;;;3.20;;
38455;SDS011;24237;50.106;20.014;2024-01-27T05:30:36;12.85;;;2.80;;
38455;SDS011;24237;50.106;20.014;2024-01-27T05:33:02;13.40;;;2.85;;
38455;SDS011;24237;50.106;20.014;2024-01-27T05:35:28;10.30;;;2.78;;
38455;SDS011;24237;50.106;20.014;2024-01-27T05:37:54;14.43;;;2.35;;
38455;SDS011;24237;50.106;20.014;2024-01-27T05:40:21;12.40;;;3.03;;
38455;SDS011;24237;50.106;20.014;2024-01-27T05:42:47;13.25;;;2.53;;
38455;SDS011;24237;50.106;20.014;2024-01-27T05:45:14;10.05;;;1.92;;
38455;SDS011;24237;50.106;20.014;2024-01-27T05:47:40;15.10;;;2.60;;
38455;SDS011;24237;50.106;20.014;2024-01-27T05:50:06;14.25;;;2.13;;
38455;SDS011;24237;50.106;20.014;2024-01-27T05:52:33;18.67;;;2.80;;
38455;SDS011;24237;50.106;20.014;2024-01-27T05:54:59;15.33;;;2.20;;
38455;SDS011;24237;50.106;20.014;2024-01-27T05:57:26;17.77;;;3.17;;
38455;SDS011;24237;50.106;20.014;2024-01-27T05:59:51;22.30;;;3.72;;
38455;SDS011;24237;50.106;20.014;2024-01-27T06:02:17;17.52;;;2.20;;
38455;SDS011;24237;50.106;20.014;2024-01-27T06:04:43;17.23;;;2.65;;
38455;SDS011;24237;50.106;20.014;2024-01-27T06:07:08;14.65;;;2.75;;
38455;SDS011;24237;50.106;20.014;2024-01-27T06:09:34;15.18;;;3.75;;
38455;SDS011;24237;50.106;20.014;2024-01-27T06:12:02;14.05;;;2.35;;
38455;SDS011;24237;50.106;20.014;2024-01-27T06:14:28;16.77;;;3.05;;
38455;SDS011;24237;50.106;20.014;2024-01-27T06:16:54;11.63;;;2.50;;
38455;SDS011;24237;50.106;20.014;2024-01-27T06:19:19;9.85;;;3.28;;
38455;SDS011;24237;50.106;20.014;2024-01-27T06:21:45;17.70;;;3.35;;
38455;SDS011;24237;50.106;20.014;2024-01-27T06:24:11;14.07;;;3.60;;
38455;SDS011;24237;50.106;20.014;2024-01-27T06:26:36;16.20;;;4.28;;
38455;SDS011;24237;50.106;20.014;2024-01-27T06:29:02;13.73;;;2.50;;
38455;SDS011;24237;50.106;20.014;2024-01-27T06:31:29;12.10;;;3.55;;
38455;SDS011;24237;50.106;20.014;2024-01-27T06:33:54;19.55;;;2.80;;
38455;SDS011;24237;50.106;20.014;2024-01-27T06:36:20;16.73;;;2.55;;
38455;SDS011;24237;50.106;20.014;2024-01-27T06:38:49;15.57;;;3.10;;
38455;SDS011;24237;50.106;20.014;2024-01-27T06:41:15;15.90;;;3.03;;
38455;SDS011;24237;50.106;20.014;2024-01-27T06:43:42;14.65;;;2.95;;
38455;SDS011;24237;50.106;20.014;2024-01-27T06:46:07;14.35;;;2.30;;
38455;SDS011;24237;50.106;20.014;2024-01-27T06:48:33;19.77;;;3.67;;
38455;SDS011;24237;50.106;20.014;2024-01-27T06:50:59;21.52;;;3.42;;
38455;SDS011;24237;50.106;20.014;2024-01-27T06:53:25;18.73;;;3.15;;
38455;SDS011;24237;50.106;20.014;2024-01-27T06:55:51;12.07;;;2.40;;
38455;SDS011;24237;50.106;20.014;2024-01-27T06:58:16;20.08;;;3.35;;
38455;SDS011;24237;50.106;20.014;2024-01-27T07:00:42;18.10;;;3.25;;
38455;SDS011;24237;50.106;20.014;2024-01-27T07:03:09;11.73;;;2.75;;
38455;SDS011;24237;50.106;20.014;2024-01-27T07:05:35;13.85;;;3.30;;
38455;SDS011;24237;50.106;20.014;2024-01-27T07:08:08;14.82;;;2.67;;
38455;SDS011;24237;50.106;20.014;2024-01-27T07:10:34;17.52;;;2.88;;
38455;SDS011;24237;50.106;20.014;2024-01-27T07:13:00;14.40;;;2.10;;
38455;SDS011;24237;50.106;20.014;2024-01-27T07:15:26;12.40;;;2.72;;
38455;SDS011;24237;50.106;20.014;2024-01-27T07:17:53;14.40;;;2.35;;
38455;SDS011;24237;50.106;20.014;2024-01-27T07:20:19;15.13;;;2.53;;
38455;SDS011;24237;50.106;20.014;2024-01-27T07:22:46;14.23;;;3.03;;
38455;SDS011;24237;50.106;20.014;2024-01-27T07:25:14;20.83;;;3.50;;
38455;SDS011;24237;50.106;20.014;2024-01-27T07:27:41;15.00;;;3.40;;
38455;SDS011;24237;50.106;20.014;2024-01-27T07:30:06;17.63;;;2.85;;
38455;SDS011;24237;50.106;20.014;2024-01-27T07:32:34;21.02;;;3.60;;
38455;SDS011;24237;50.106;20.014;2024-01-27T07:35:00;20.27;;;3.22;;
38455;SDS011;24237;50.106;20.014;2024-01-27T07:37:26;15.83;;;2.40;;
38455;SDS011;24237;50.106;20.014;2024-01-27T07:39:52;15.35;;;2.85;;
38455;SDS011;24237;50.106;20.014;2024-01-27T07:42:18;14.23;;;3.33;;
38455;SDS011;24237;50.106;20.014;2024-01-27T07:44:43;20.30;;;2.65;;
38455;SDS011;24237;50.106;20.014;2024-01-27T07:47:09;18.80;;;2.95;;
38455;SDS011;24237;50.106;20.014;2024-01-27T07:49:35;10.30;;;3.17;;
38455;SDS011;24237;50.106;20.014;2024-01-27T07:52:01;11.93;;;2.60;;
38455;SDS011;24237;50.106;20.014;2024-01-27T07:54:26;16.05;;;3.45;;
38455;SDS011;24237;50.106;20.014;2024-01-27T07:56:52;13.15;;;2.67;;
38455;SDS011;24237;50.106;20.014;2024-01-27T07:59:18;11.00;;;3.15;;
38455;SDS011;24237;50.106;20.014;2024-01-27T08:01:43;14.18;;;3.72;;
38455;SDS011;24237;50.106;20.014;2024-01-27T08:04:09;26.40;;;7.28;;
38455;SDS011;24237;50.106;20.014;2024-01-27T08:06:45;20.02;;;4.63;;
38455;SDS011;24237;50.106;20.014;2024-01-27T08:09:11;19.25;;;3.85;;
38455;SDS011;24237;50.106;20.014;2024-01-27T08:11:37;9.20;;;2.85;;
38455;SDS011;24237;50.106;20.014;2024-01-27T08:14:03;11.55;;;2.67;;
38455;SDS011;24237;50.106;20.014;2024-01-27T08:16:28;12.82;;;2.95;;
38455;SDS011;24237;50.106;20.014;2024-01-27T08:18:54;14.57;;;3.55;;
38455;SDS011;24237;50.106;20.014;2024-01-27T08:21:20;14.85;;;2.92;;
38455;SDS011;24237;50.106;20.014;2024-01-27T08:23:46;18.45;;;3.08;;
38455;SDS011;24237;50.106;20.014;2024-01-27T08:26:11;15.73;;;3.03;;
38455;SDS011;24237;50.106;20.014;2024-01-27T08:28:37;16.02;;;2.78;;
38455;SDS011;24237;50.106;20.014;2024-01-27T08:31:03;23.92;;;4.00;;
38455;SDS011;24237;50.106;20.014;2024-01-27T08:33:29;20.55;;;3.72;;
38455;SDS011;24237;50.106;20.014;2024-01-27T08:35:55;15.57;;;2.97;;
38455;SDS011;24237;50.106;20.014;2024-01-27T08:38:21;12.75;;;3.20;;
38455;SDS011;24237;50.106;20.014;2024-01-27T08:40:46;18.52;;;3.22;;
38455;SDS011;24237;50.106;20.014;2024-01-27T08:43:12;16.20;;;3.28;;
38455;SDS011;24237;50.106;20.014;2024-01-27T08:45:38;16.23;;;3.20;;
38455;SDS011;24237;50.106;20.014;2024-01-27T08:48:05;13.33;;;3.93;;
38455;SDS011;24237;50.106;20.014;2024-01-27T08:50:31;17.08;;;3.92;;
38455;SDS011;24237;50.106;20.014;2024-01-27T08:52:56;14.73;;;3.50;;
38455;SDS011;24237;50.106;20.014;2024-01-27T08:55:22;17.85;;;3.85;;
38455;SDS011;24237;50.106;20.014;2024-01-27T08:57:49;11.25;;;2.97;;
38455;SDS011;24237;50.106;20.014;2024-01-27T09:00:15;25.35;;;3.88;;
38455;SDS011;24237;50.106;20.014;2024-01-27T09:02:44;17.73;;;2.88;;
38455;SDS011;24237;50.106;20.014;2024-01-27T09:05:10;14.55;;;3.17;;
38455;SDS011;24237;50.106;20.014;2024-01-27T09:07:36;19.85;;;4.32;;
38455;SDS011;24237;50.106;20.014;2024-01-27T09:10:02;20.13;;;3.65;;
38455;SDS011;24237;50.106;20.014;2024-01-27T09:12:28;16.52;;;3.47;;
38455;SDS011;24237;50.106;20.014;2024-01-27T09:14:54;17.63;;;3.13;;
38455;SDS011;24237;50.106;20.014;2024-01-27T09:17:20;15.18;;;3.53;;
38455;SDS011;24237;50.106;20.014;2024-01-27T09:19:46;12.43;;;3.38;;
38455;SDS011;24237;50.106;20.014;2024-01-27T09:22:11;16.75;;;4.00;;
38455;SDS011;24237;50.106;20.014;2024-01-27T09:24:37;11.23;;;3.40;;
38455;SDS011;24237;50.106;20.014;2024-01-27T09:27:04;21.08;;;3.53;;
38455;SDS011;24237;50.106;20.014;2024-01-27T09:29:30;16.25;;;3.35;;
38455;SDS011;24237;50.106;20.014;2024-01-27T09:31:55;22.50;;;4.47;;
38455;SDS011;24237;50.106;20.014;2024-01-27T09:34:21;14.00;;;2.90;;
38455;SDS011;24237;50.106;20.014;2024-01-27T09:36:47;15.23;;;4.60;;
38455;SDS011;24237;50.106;20.014;2024-01-27T09:39:12;18.27;;;3.40;;
38455;SDS011;24237;50.106;20.014;2024-01-27T09:41:38;30.60;;;4.88;;
38455;SDS011;24237;50.106;20.014;2024-01-27T09:44:04;14.80;;;3.78;;
38455;SDS011;24237;50.106;20.014;2024-01-27T09:46:31;18.20;;;3.42;;
38455;SDS011;24237;50.106;20.014;2024-01-27T09:48:57;19.73;;;3.33;;
38455;SDS011;24237;50.106;20.014;2024-01-27T09:51:24;14.18;;;3.38;;
38455;SDS011;24237;50.106;20.014;2024-01-27T09:53:51;15.90;;;3.40;;
38455;SDS011;24237;50.106;20.014;2024-01-27T09:56:17;18.17;;;4.20;;
38455;SDS011;24237;50.106;20.014;2024-01-27T09:58:44;19.92;;;4.13;;
38455;SDS011;24237;50.106;20.014;2024-01-27T10:01:10;16.10;;;3.70;;
38455;SDS011;24237;50.106;20.014;2024-01-27T10:03:38;16.90;;;3.72;;
38455;SDS011;24237;50.106;20.014;2024-01-27T10:06:07;18.42;;;4.05;;
38455;SDS011;24237;50.106;20.014;2024-01-27T10:08:34;15.93;;;3.78;;
38455;SDS011;24237;50.106;20.014;2024-01-27T10:11:00;12.98;;;3.83;;
38455;SDS011;24237;50.106;20.014;2024-01-27T10:13:36;14.40;;;3.35;;
38455;SDS011;24237;50.106;20.014;2024-01-27T10:16:08;18.55;;;4.13;;
38455;SDS011;24237;50.106;20.014;2024-01-27T10:18:35;9.85;;;3.45;;
38455;SDS011;24237;50.106;20.014;2024-01-27T10:21:12;12.27;;;3.70;;
38455;SDS011;24237;50.106;20.014;2024-01-27T10:23:41;17.98;;;4.22;;
38455;SDS011;24237;50.106;20.014;2024-01-27T10:26:10;16.58;;;3.95;;
38455;SDS011;24237;50.106;20.014;2024-01-27T10:28:38;17.20;;;4.30;;
38455;SDS011;24237;50.106;20.014;2024-01-27T10:31:11;10.57;;;3.63;;
38455;SDS011;24237;50.106;20.014;2024-01-27T10:33:37;13.30;;;4.40;;
38455;SDS011;24237;50.106;20.014;2024-01-27T10:36:03;12.05;;;3.50;;
38455;SDS011;24237;50.106;20.014;2024-01-27T10:38:33;17.42;;;3.75;;
38455;SDS011;24237;50.106;20.014;2024-01-27T10:41:03;10.60;;;3.25;;
38455;SDS011;24237;50.106;20.014;2024-01-27T10:43:37;12.07;;;3.95;;
38455;SDS011;24237;50.106;20.014;2024-01-27T10:46:07;12.02;;;4.18;;
38455;SDS011;24237;50.106;20.014;2024-01-27T10:48:36;20.48;;;4.40;;
38455;SDS011;24237;50.106;20.014;2024-01-27T10:51:09;15.05;;;4.88;;
38455;SDS011;24237;50.106;20.014;2024-01-27T10:53:35;14.48;;;4.68;;
38455;SDS011;24237;50.106;20.014;2024-01-27T10:56:03;14.95;;;3.80;;
38455;SDS011;24237;50.106;20.014;2024-01-27T10:58:34;14.68;;;3.50;;
38455;SDS011;24237;50.106;20.014;2024-01-27T11:01:10;9.43;;;3.47;;
38455;SDS011;24237;50.106;20.014;2024-01-27T11:03:38;10.95;;;3.97;;
38455;SDS011;24237;50.106;20.014;2024-01-27T11:06:07;20.65;;;4.90;;
38455;SDS011;24237;50.106;20.014;2024-01-27T11:08:37;13.13;;;3.42;;
38455;SDS011;24237;50.106;20.014;2024-01-27T11:11:09;12.77;;;3.97;;
38455;SDS011;24237;50.106;20.014;2024-01-27T11:13:35;14.93;;;4.07;;
38455;SDS011;24237;50.106;20.014;2024-01-27T11:16:05;15.98;;;4.85;;
38455;SDS011;24237;50.106;20.014;2024-01-27T11:18:31;20.73;;;4.47;;
38455;SDS011;24237;50.106;20.014;2024-01-27T11:20:58;24.02;;;4.85;;
38455;SDS011;24237;50.106;20.014;2024-01-27T11:23:31;24.83;;;5.05;;
38455;SDS011;24237;50.106;20.014;2024-01-27T11:26:08;23.40;;;4.22;;
38455;SDS011;24237;50.106;20.014;2024-01-27T11:28:34;15.70;;;4.25;;
38455;SDS011;24237;50.106;20.014;2024-01-27T11:31:04;13.98;;;4.68;;
38455;SDS011;24237;50.106;20.014;2024-01-27T11:33:40;18.30;;;4.50;;
38455;SDS011;24237;50.106;20.014;2024-01-27T11:36:14;23.98;;;4.15;;
38455;SDS011;24237;50.106;20.014;2024-01-27T11:38:52;15.43;;;4.80;;
38455;SDS011;24237;50.106;20.014;2024-01-27T11:41:25;13.27;;;4.20;;
38455;SDS011;24237;50.106;20.014;2024-01-27T11:43:54;17.98;;;5.15;;
38455;SDS011;24237;50.106;20.014;2024-01-27T11:46:21;10.63;;;4.15;;
38455;SDS011;24237;50.106;20.014;2024-01-27T11:48:47;15.68;;;4.78;;
38455;SDS011;24237;50.106;20.014;2024-01-27T11:51:14;23.35;;;4.97;;
38455;SDS011;24237;50.106;20.014;2024-01-27T11:53:40;20.55;;;4.88;;
38455;SDS011;24237;50.106;20.014;2024-01-27T11:56:06;15.70;;;5.75;;
38455;SDS011;24237;50.106;20.014;2024-01-27T11:58:32;21.58;;;5.35;;
38455;SDS011;24237;50.106;20.014;2024-01-27T12:00:58;15.43;;;4.53;;
38455;SDS011;24237;50.106;20.014;2024-01-27T12:03:26;14.32;;;4.82;;
38455;SDS011;24237;50.106;20.014;2024-01-27T12:05:52;19.48;;;5.60;;
38455;SDS011;24237;50.106;20.014;2024-01-27T12:08:18;21.90;;;5.82;;
38455;SDS011;24237;50.106;20.014;2024-01-27T12:10:44;18.40;;;5.90;;
38455;SDS011;24237;50.106;20.014;2024-01-27T12:13:09;23.27;;;5.53;;
38455;SDS011;24237;50.106;20.014;2024-01-27T12:15:35;17.40;;;5.85;;
38455;SDS011;24237;50.106;20.014;2024-01-27T12:18:02;16.83;;;5.60;;
38455;SDS011;24237;50.106;20.014;2024-01-27T12:20:29;19.23;;;6.40;;
38455;SDS011;24237;50.106;20.014;2024-01-27T12:23:05;17.75;;;5.53;;
38455;SDS011;24237;50.106;20.014;2024-01-27T12:25:31;22.35;;;6.28;;
38455;SDS011;24237;50.106;20.014;2024-01-27T12:28:01;23.40;;;5.88;;
38455;SDS011;24237;50.106;20.014;2024-01-27T12:30:27;21.08;;;5.55;;
38455;SDS011;24237;50.106;20.014;2024-01-27T12:32:53;16.33;;;5.70;;
38455;SDS011;24237;50.106;20.014;2024-01-27T12:35:19;15.82;;;6.22;;
38455;SDS011;24237;50.106;20.014;2024-01-27T12:37:45;17.23;;;5.43;;
38455;SDS011;24237;50.106;20.014;2024-01-27T12:40:18;18.42;;;6.28;;
38455;SDS011;24237;50.106;20.014;2024-01-27T12:42:53;21.85;;;5.32;;
38455;SDS011;24237;50.106;20.014;2024-01-27T12:45:19;26.60;;;7.97;;
38455;SDS011;24237;50.106;20.014;2024-01-27T12:47:45;20.50;;;6.80;;
38455;SDS011;24237;50.106;20.014;2024-01-27T12:50:10;23.88;;;7.15;;
38455;SDS011;24237;50.106;20.014;2024-01-27T12:52:36;32.13;;;7.25;;
38455;SDS011;24237;50.106;20.014;2024-01-27T12:55:05;15.70;;;6.30;;
38455;SDS011;24237;50.106;20.014;2024-01-27T12:57:34;22.23;;;7.00;;
38455;SDS011;24237;50.106;20.014;2024-01-27T13:00:00;19.92;;;5.82;;
38455;SDS011;24237;50.106;20.014;2024-01-27T13:02:34;22.23;;;6.18;;
38455;SDS011;24237;50.106;20.014;2024-01-27T13:05:00;25.30;;;7.40;;
38455;SDS011;24237;50.106;20.014;2024-01-27T13:07:26;20.08;;;6.10;;
38455;SDS011;24237;50.106;20.014;2024-01-27T13:09:52;18.88;;;7.55;;
38455;SDS011;24237;50.106;20.014;2024-01-27T13:12:17;21.80;;;6.53;;
38455;SDS011;24237;50.106;20.014;2024-01-27T13:14:43;22.25;;;7.20;;
38455;SDS011;24237;50.106;20.014;2024-01-27T13:17:09;15.20;;;5.95;;
38455;SDS011;24237;50.106;20.014;2024-01-27T13:19:35;17.95;;;6.45;;
38455;SDS011;24237;50.106;20.014;2024-01-27T13:22:01;19.00;;;6.38;;
38455;SDS011;24237;50.106;20.014;2024-01-27T13:24:27;23.15;;;6.32;;
38455;SDS011;24237;50.106;20.014;2024-01-27T13:26:56;17.40;;;6.28;;
38455;SDS011;24237;50.106;20.014;2024-01-27T13:29:22;18.35;;;6.45;;
38455;SDS011;24237;50.106;20.014;2024-01-27T13:31:49;20.67;;;6.22;;
38455;SDS011;24237;50.106;20.014;2024-01-27T13:34:15;13.35;;;5.88;;
38455;SDS011;24237;50.106;20.014;2024-01-27T13:36:40;19.75;;;6.38;;
38455;SDS011;24237;50.106;20.014;2024-01-27T13:39:06;18.23;;;6.82;;
38455;SDS011;24237;50.106;20.014;2024-01-27T13:41:32;13.65;;;6.10;;
38455;SDS011;24237;50.106;20.014;2024-01-27T13:44:09;26.33;;;6.65;;
38455;SDS011;24237;50.106;20.014;2024-01-27T13:46:35;14.00;;;4.47;;
38455;SDS011;24237;50.106;20.014;2024-01-27T13:49:01;13.95;;;5.75;;
38455;SDS011;24237;50.106;20.014;2024-01-27T13:51:27;11.13;;;5.07;;
38455;SDS011;24237;50.106;20.014;2024-01-27T13:53:53;19.88;;;6.65;;
38455;SDS011;24237;50.106;20.014;2024-01-27T13:56:18;14.13;;;4.68;;
38455;SDS011;24237;50.106;20.014;2024-01-27T13:58:44;23.30;;;5.75;;
38455;SDS011;24237;50.106;20.014;2024-01-27T14:01:11;12.18;;;4.72;;
38455;SDS011;24237;50.106;20.014;2024-01-27T14:03:37;10.95;;;4.57;;
38455;SDS011;24237;50.106;20.014;2024-01-27T14:06:03;14.07;;;4.45;;
38455;SDS011;24237;50.106;20.014;2024-01-27T14:08:29;12.10;;;4.63;;
38455;SDS011;24237;50.106;20.014;2024-01-27T14:10:55;14.20;;;4.45;;
38455;SDS011;24237;50.106;20.014;2024-01-27T14:13:21;16.40;;;5.95;;
38455;SDS011;24237;50.106;20.014;2024-01-27T14:15:47;10.05;;;3.72;;
38455;SDS011;24237;50.106;20.014;2024-01-27T14:18:13;14.25;;;4.38;;
38455;SDS011;24237;50.106;20.014;2024-01-27T14:20:45;11.52;;;4.25;;
38455;SDS011;24237;50.106;20.014;2024-01-27T14:23:12;17.17;;;4.75;;